createdAt,value
2018-06-25T00:02:11.936Z,15.03
2018-06-25T00:04:40.793Z,15.68
2018-06-25T00:07:09.622Z,15.87
2018-06-25T00:09:38.468Z,15.41
2018-06-25T00:13:05.908Z,15.31
2018-06-25T00:15:34.724Z,15.21
2018-06-25T00:18:03.685Z,15.19
2018-06-25T00:20:32.479Z,15.17
2018-06-25T00:23:01.333Z,15.13
2018-06-25T00:25:32.859Z,15.12
2018-06-25T00:28:02.218Z,15.10
2018-06-25T00:30:30.890Z,15.08
2018-06-25T00:32:59.737Z,15.73
2018-06-25T00:35:28.893Z,15.91
2018-06-25T00:38:00.234Z,15.42
2018-06-25T00:40:29.278Z,15.29
2018-06-25T00:42:58.300Z,15.25
2018-06-25T00:45:28.467Z,15.89
2018-06-25T00:47:57.363Z,15.42
2018-06-25T00:50:27.311Z,15.31
2018-06-25T00:52:56.133Z,15.25
2018-06-25T00:55:24.821Z,15.18
2018-06-25T00:57:53.767Z,15.14
2018-06-25T01:00:22.765Z,15.11
2018-06-25T01:03:04.938Z,15.08
2018-06-25T01:05:33.857Z,15.03
2018-06-25T01:08:02.612Z,15.73
2018-06-25T01:10:31.476Z,15.27
2018-06-25T01:13:00.273Z,15.18
2018-06-25T01:15:32.183Z,15.14
2018-06-25T01:17:57.966Z,15.10
2018-06-25T01:20:26.762Z,15.05
2018-06-25T01:22:55.612Z,15.05
2018-06-25T01:25:24.289Z,15.03
2018-06-25T01:27:53.133Z,15.02
2018-06-25T01:30:22.001Z,15.02
2018-06-25T01:32:51.829Z,15.68
2018-06-25T01:35:20.627Z,15.19
2018-06-25T01:37:49.419Z,15.09
2018-06-25T01:40:18.201Z,15.03
2018-06-25T01:42:47.020Z,15.00
2018-06-25T01:45:15.790Z,14.98
2018-06-25T01:47:48.295Z,14.95
2018-06-25T01:50:17.021Z,14.93
2018-06-25T01:52:45.767Z,14.89
2018-06-25T01:55:14.571Z,14.87
2018-06-25T01:57:43.289Z,14.87
2018-06-25T02:00:14.253Z,14.85
2018-06-25T02:02:43.284Z,14.83
2018-06-25T02:05:12.112Z,14.79
2018-06-25T02:07:40.887Z,14.78
2018-06-25T02:10:12.079Z,14.77
2018-06-25T02:12:40.864Z,14.75
2018-06-25T02:15:11.234Z,14.73
2018-06-25T02:17:40.041Z,14.67
2018-06-25T02:20:08.950Z,14.65
2018-06-25T02:22:37.695Z,14.64
2018-06-25T02:25:06.525Z,14.65
2018-06-25T02:27:35.280Z,14.62
2018-06-25T02:30:04.048Z,14.58
2018-06-25T02:32:32.849Z,14.57
2018-06-25T02:35:01.620Z,14.54
2018-06-25T02:37:30.417Z,14.52
2018-06-25T02:48:29.464Z,14.49
2018-06-25T02:50:58.325Z,14.47
2018-06-25T02:53:27.191Z,14.46
2018-06-25T02:55:56.001Z,14.44
2018-06-25T02:58:24.757Z,14.42
2018-06-25T03:00:53.569Z,15.12
2018-06-25T03:03:22.414Z,14.63
2018-06-25T03:05:51.288Z,14.50
2018-06-25T03:08:20.122Z,14.49
2018-06-25T03:10:48.852Z,14.48
2018-06-25T03:13:17.623Z,14.47
2018-06-25T03:15:46.379Z,14.47
2018-06-25T03:18:15.219Z,14.45
2018-06-25T03:20:44.059Z,14.47
2018-06-25T03:23:12.801Z,14.46
2018-06-25T03:25:41.544Z,14.48
2018-06-25T03:28:11.563Z,14.47
2018-06-25T03:30:40.422Z,14.49
2018-06-25T03:33:09.252Z,14.51
2018-06-25T03:35:38.141Z,14.50
2018-06-25T03:38:06.921Z,14.52
2018-06-25T03:40:35.686Z,15.26
2018-06-25T03:43:04.895Z,14.80
2018-06-25T03:45:33.760Z,14.71
2018-06-25T03:48:02.721Z,14.68
2018-06-25T03:50:32.660Z,14.66
2018-06-25T03:55:52.521Z,14.62
2018-06-25T03:58:21.348Z,14.61
2018-06-25T04:00:50.867Z,14.62
2018-06-25T04:03:19.705Z,14.63
2018-06-25T04:05:48.466Z,14.67
2018-06-25T04:08:17.280Z,14.70
2018-06-25T04:10:46.259Z,14.71
2018-06-25T04:13:15.063Z,14.75
2018-06-25T04:15:43.875Z,14.79
2018-06-25T04:18:13.168Z,14.83
2018-06-25T04:20:42.031Z,14.86
2018-06-25T04:23:11.097Z,14.88
2018-06-25T04:25:42.454Z,14.90
2018-06-25T04:28:11.300Z,14.92
2018-06-25T04:30:40.463Z,15.67
2018-06-25T04:33:09.311Z,15.18
2018-06-25T04:35:46.359Z,15.12
2018-06-25T04:41:54.440Z,15.04
2018-06-25T04:51:32.466Z,15.25
2018-06-25T05:17:31.446Z,15.68
2018-06-25T05:20:00.326Z,15.80
2018-06-25T05:22:29.204Z,15.87
2018-06-25T05:24:57.937Z,15.93
2018-06-25T05:27:26.822Z,15.99
2018-06-25T05:29:55.592Z,16.02
2018-06-25T05:32:24.416Z,16.00
2018-06-25T05:34:53.382Z,16.04
2018-06-25T05:37:22.162Z,16.09
2018-06-25T05:39:51.227Z,16.17
2018-06-25T05:42:19.999Z,16.23
2018-06-25T05:44:49.065Z,16.32
2018-06-25T05:47:17.952Z,17.28
2018-06-25T05:49:46.764Z,17.53
2018-06-25T05:52:15.646Z,17.68
2018-06-25T05:54:44.521Z,17.05
2018-06-25T05:57:13.396Z,17.77
2018-06-25T05:59:42.249Z,17.16
2018-06-25T06:02:10.982Z,17.07
2018-06-25T06:04:39.698Z,17.02
2018-06-25T06:07:08.622Z,17.13
2018-06-25T06:09:37.466Z,17.26
2018-06-25T06:12:06.367Z,17.41
2018-06-25T06:14:35.250Z,17.57
2018-06-25T06:17:03.998Z,17.76
2018-06-25T06:19:32.690Z,17.86
2018-06-25T06:22:01.502Z,17.99
2018-06-25T06:24:38.174Z,18.21
2018-06-25T06:27:06.886Z,18.49
2018-06-25T06:29:37.990Z,18.80
2018-06-25T06:34:54.385Z,18.85
2018-06-25T06:37:28.347Z,18.60
2018-06-25T06:39:58.035Z,18.44
2018-06-25T06:42:33.002Z,18.55
2018-06-25T06:45:02.311Z,18.70
2018-06-25T06:47:31.038Z,18.71
2018-06-25T06:49:59.888Z,18.58
2018-06-25T06:52:28.600Z,18.50
2018-06-25T06:55:00.289Z,18.40
2018-06-25T06:57:29.334Z,18.42
2018-06-25T06:59:58.351Z,18.47
2018-06-25T07:05:14.686Z,18.54
2018-06-25T07:07:43.606Z,18.48
2018-06-25T07:10:12.360Z,18.55
2018-06-25T07:12:41.312Z,18.59
2018-06-25T07:15:12.408Z,18.70
2018-06-25T07:17:41.448Z,19.92
2018-06-25T07:20:10.174Z,19.23
2018-06-25T07:22:39.108Z,19.31
2018-06-25T07:25:07.907Z,20.53
2018-06-25T07:27:36.945Z,19.81
2018-06-25T07:30:05.733Z,19.71
2018-06-25T07:32:34.723Z,19.70
2018-06-25T07:35:03.437Z,19.65
2018-06-25T07:37:32.233Z,19.66
2018-06-25T07:40:01.000Z,19.51
2018-06-25T07:42:29.855Z,19.48
2018-06-25T07:44:58.579Z,19.40
2018-06-25T07:47:27.438Z,20.63
2018-06-25T07:49:56.298Z,19.93
2018-06-25T07:52:25.125Z,20.93
2018-06-25T07:54:53.980Z,20.13
2018-06-25T07:57:22.972Z,19.93
2018-06-25T07:59:52.413Z,19.94
2018-06-25T08:02:21.859Z,19.89
2018-06-25T08:04:51.619Z,19.99
2018-06-25T08:07:20.362Z,20.12
2018-06-25T08:09:49.137Z,21.37
2018-06-25T08:12:20.998Z,20.58
2018-06-25T08:14:51.646Z,20.45
2018-06-25T08:17:18.636Z,20.41
2018-06-25T08:19:48.992Z,21.36
2018-06-25T08:22:17.869Z,20.45
2018-06-25T08:24:46.592Z,20.09
2018-06-25T08:27:15.388Z,19.95
2018-06-25T08:29:44.307Z,21.06
2018-06-25T08:32:13.131Z,20.29
2018-06-25T08:34:41.931Z,20.14
2018-06-25T08:37:10.889Z,20.09
2018-06-25T08:39:39.661Z,20.26
2018-06-25T08:42:08.456Z,20.48
2018-06-25T08:44:37.276Z,20.69
2018-06-25T08:47:05.957Z,20.75
2018-06-25T08:49:34.823Z,21.08
2018-06-25T08:52:03.676Z,21.34
2018-06-25T08:54:32.371Z,21.60
2018-06-25T08:57:01.104Z,21.64
2018-06-25T08:59:29.689Z,21.54
2018-06-25T09:01:58.414Z,21.77
2018-06-25T09:04:27.288Z,21.89
2018-06-25T09:06:55.920Z,21.92
2018-06-25T09:09:24.664Z,22.43
2018-06-25T09:11:53.363Z,22.81
2018-06-25T09:14:22.235Z,24.23
2018-06-25T09:17:00.160Z,23.23
2018-06-25T09:19:28.961Z,22.87
2018-06-25T09:21:57.812Z,22.72
2018-06-25T09:24:26.481Z,22.65
2018-06-25T09:26:55.452Z,22.57
2018-06-25T09:29:24.158Z,22.51
2018-06-25T09:31:52.909Z,22.77
2018-06-25T09:34:21.612Z,23.00
2018-06-25T09:36:50.797Z,23.35
2018-06-25T09:39:19.804Z,23.71
2018-06-25T09:41:48.727Z,24.13
2018-06-25T09:44:17.250Z,24.17
2018-06-25T09:46:46.029Z,24.12
2018-06-25T09:49:23.178Z,24.15
2018-06-25T09:51:51.945Z,25.47
2018-06-25T09:54:20.645Z,24.57
2018-06-25T09:56:49.397Z,24.37
2018-06-25T09:59:18.047Z,24.20
2018-06-25T10:01:46.858Z,25.47
2018-06-25T10:04:15.709Z,24.33
2018-06-25T10:06:44.468Z,23.97
2018-06-25T10:09:13.165Z,23.90
2018-06-25T10:11:41.831Z,23.66
2018-06-25T10:14:12.532Z,23.75
2018-06-25T10:16:41.226Z,24.15
2018-06-25T10:19:11.610Z,25.92
2018-06-25T10:21:38.719Z,25.08
2018-06-25T10:24:07.411Z,25.01
2018-06-25T10:26:36.115Z,24.78
2018-06-25T10:29:04.845Z,25.86
2018-06-25T10:31:33.592Z,24.75
2018-06-25T10:34:02.354Z,24.54
2018-06-25T10:36:31.156Z,25.72
2018-06-25T10:38:59.896Z,24.86
2018-06-25T10:41:28.595Z,25.00
2018-06-25T10:44:03.084Z,24.97
2018-06-25T10:46:32.896Z,24.89
2018-06-25T10:49:01.689Z,25.01
2018-06-25T10:51:30.788Z,25.26
2018-06-25T10:53:59.532Z,25.36
2018-06-25T10:56:28.292Z,25.59
2018-06-25T10:58:56.976Z,25.68
2018-06-25T11:01:42.257Z,25.53
2018-06-25T11:04:11.376Z,25.26
2018-06-25T11:06:40.275Z,25.62
2018-06-25T11:09:08.978Z,25.81
2018-06-25T11:11:37.677Z,25.91
2018-06-25T11:14:09.332Z,27.50
2018-06-25T11:16:41.978Z,27.80
2018-06-25T11:19:11.722Z,26.45
2018-06-25T11:21:44.206Z,25.93
2018-06-25T11:24:13.122Z,25.45
2018-06-25T11:26:43.501Z,26.33
2018-06-25T11:29:12.170Z,26.35
2018-06-25T11:31:40.839Z,25.50
2018-06-25T11:34:09.658Z,25.76
2018-06-25T11:36:38.325Z,26.18
2018-06-25T11:39:07.075Z,26.31
2018-06-25T11:41:37.474Z,26.31
2018-06-25T11:44:11.257Z,26.13
2018-06-25T11:46:53.477Z,26.07
2018-06-25T11:49:23.249Z,26.15
2018-06-25T11:51:53.407Z,26.25
2018-06-25T11:54:23.241Z,26.62
2018-06-25T11:56:52.373Z,26.74
2018-06-25T11:59:21.574Z,26.60
2018-06-25T12:01:50.440Z,26.60
2018-06-25T12:04:19.141Z,26.34
2018-06-25T12:06:47.832Z,26.13
2018-06-25T12:09:16.694Z,26.33
2018-06-25T12:11:45.406Z,26.52
2018-06-25T12:14:14.178Z,26.85
2018-06-25T12:16:42.918Z,27.33
2018-06-25T12:19:14.175Z,27.77
2018-06-25T12:21:42.925Z,27.73
2018-06-25T12:24:13.284Z,29.04
2018-06-25T12:26:42.049Z,28.24
2018-06-25T12:29:12.949Z,28.50
2018-06-25T12:31:41.844Z,28.61
2018-06-25T12:34:10.594Z,28.33
2018-06-25T12:36:39.379Z,27.94
2018-06-25T12:39:08.081Z,27.94
2018-06-25T12:41:37.643Z,27.98
2018-06-25T12:44:06.343Z,28.27
2018-06-25T12:46:35.083Z,28.41
2018-06-25T12:49:04.493Z,28.45
2018-06-25T12:51:33.322Z,28.21
2018-06-25T12:54:02.085Z,28.24
2018-06-25T12:56:33.064Z,28.25
2018-06-25T12:59:02.522Z,29.73
2018-06-25T13:01:32.275Z,28.69
2018-06-25T13:04:01.504Z,28.51
2018-06-25T13:06:32.610Z,28.55
2018-06-25T13:09:01.315Z,28.51
2018-06-25T13:11:30.113Z,28.50
2018-06-25T13:13:58.913Z,28.36
2018-06-25T13:16:28.369Z,28.31
2018-06-25T13:18:57.347Z,28.21
2018-06-25T13:21:26.416Z,29.61
2018-06-25T13:23:55.706Z,28.52
2018-06-25T13:26:25.375Z,29.69
2018-06-25T13:28:55.595Z,28.63
2018-06-25T13:31:24.307Z,28.59
2018-06-25T13:33:53.532Z,28.27
2018-06-25T13:36:25.228Z,28.31
2018-06-25T13:38:54.032Z,28.38
2018-06-25T13:41:24.372Z,28.27
2018-06-25T13:43:53.535Z,28.28
2018-06-25T13:46:24.454Z,28.58
2018-06-25T13:48:54.305Z,28.77
2018-06-25T13:54:17.329Z,28.53
2018-06-25T13:56:48.109Z,28.21
2018-06-25T13:59:19.278Z,28.03
2018-06-25T14:01:48.573Z,27.79
2018-06-25T14:04:28.380Z,27.62
2018-06-25T14:07:03.237Z,27.61
2018-06-25T14:09:32.945Z,27.78
2018-06-25T14:12:06.051Z,29.28
2018-06-25T14:14:35.704Z,28.30
2018-06-25T14:17:05.794Z,28.30
2018-06-25T14:19:40.885Z,28.37
2018-06-25T14:22:16.144Z,28.44
2018-06-25T14:24:49.037Z,28.39
2018-06-25T14:30:28.933Z,28.46
2018-06-25T14:32:59.721Z,28.40
2018-06-25T14:35:32.968Z,28.10
2018-06-25T14:38:02.395Z,28.04
2018-06-25T14:40:36.444Z,27.95
2018-06-25T14:43:09.864Z,29.56
2018-06-25T14:45:39.798Z,28.35
2018-06-25T14:48:12.444Z,28.02
2018-06-25T14:50:45.236Z,27.96
2018-06-25T14:53:14.902Z,28.09
2018-06-25T14:55:49.337Z,28.13
2018-06-25T14:58:19.563Z,27.83
2018-06-25T15:00:52.466Z,27.95
2018-06-25T15:03:25.443Z,28.13
2018-06-25T15:05:56.151Z,28.03
2018-06-25T15:08:26.311Z,27.76
2018-06-25T15:10:58.159Z,28.28
2018-06-25T15:13:27.311Z,28.90
2018-06-25T15:15:56.469Z,28.61
2018-06-25T15:18:25.829Z,28.54
2018-06-25T15:20:55.405Z,28.65
2018-06-25T15:23:24.868Z,30.22
2018-06-25T15:25:54.546Z,28.96
2018-06-25T15:28:26.047Z,29.94
2018-06-25T15:30:57.732Z,29.10
2018-06-25T15:36:19.986Z,31.01
2018-06-25T15:38:55.191Z,29.71
2018-06-25T15:41:24.977Z,29.18
2018-06-25T15:46:45.220Z,28.52
2018-06-25T15:49:14.042Z,28.31
2018-06-25T15:51:43.484Z,28.11
2018-06-25T15:54:12.543Z,27.93
2018-06-25T15:56:42.154Z,28.27
2018-06-25T15:59:18.017Z,28.28
2018-06-25T16:04:39.366Z,28.10
2018-06-25T16:10:07.077Z,27.58
2018-06-25T16:12:38.491Z,27.52
2018-06-25T16:18:06.799Z,29.09
2018-06-25T16:20:36.146Z,31.52
2018-06-25T16:23:05.106Z,30.87
2018-06-25T16:25:36.668Z,30.85
2018-06-25T16:30:53.659Z,31.43
2018-06-25T16:33:25.445Z,31.03
2018-06-25T16:36:01.889Z,30.85
2018-06-25T16:38:48.501Z,31.04
2018-06-25T16:41:18.232Z,30.88
2018-06-25T16:43:47.093Z,30.84
2018-06-25T16:46:18.414Z,30.73
2018-06-25T16:48:47.774Z,30.63
2018-06-25T16:51:16.899Z,30.02
2018-06-25T16:53:48.444Z,30.07
2018-06-25T16:56:17.269Z,30.72
2018-06-25T16:58:46.223Z,31.16
2018-06-25T17:01:17.664Z,31.54
2018-06-25T17:03:46.996Z,31.26
2018-06-25T17:06:16.987Z,30.89
2018-06-25T17:08:52.132Z,30.79
2018-06-25T17:11:22.798Z,30.42
2018-06-25T17:14:06.167Z,30.81
2018-06-25T17:16:36.185Z,31.51
2018-06-25T17:19:05.302Z,31.78
2018-06-25T17:21:41.539Z,34.11
2018-06-25T17:24:10.573Z,32.07
2018-06-25T17:32:22.408Z,29.36
2018-06-25T17:34:53.966Z,28.64
2018-06-25T17:37:24.565Z,31.08
2018-06-25T17:39:53.635Z,30.09
2018-06-25T17:42:22.933Z,30.39
2018-06-25T17:44:53.195Z,30.51
2018-06-25T17:47:23.132Z,30.32
2018-06-25T17:49:53.102Z,30.18
2018-06-25T17:52:25.514Z,29.37
2018-06-25T17:54:55.997Z,28.27
2018-06-25T17:57:24.791Z,27.45
2018-06-25T17:59:54.639Z,26.90
2018-06-25T18:02:24.671Z,26.58
2018-06-25T18:05:03.919Z,26.44
2018-06-25T18:07:33.207Z,26.12
2018-06-25T18:10:03.768Z,25.73
2018-06-25T18:12:39.439Z,25.32
2018-06-25T18:15:08.358Z,24.88
2018-06-25T18:17:51.791Z,24.53
2018-06-25T18:20:21.306Z,24.16
2018-06-25T18:22:50.340Z,23.97
2018-06-25T18:25:36.018Z,23.73
2018-06-25T18:28:06.477Z,23.55
2018-06-25T18:30:35.746Z,23.22
2018-06-25T18:33:06.151Z,22.92
2018-06-25T18:35:35.386Z,22.68
2018-06-25T18:38:07.884Z,23.55
2018-06-25T18:40:37.139Z,22.59
2018-06-25T18:43:10.366Z,22.34
2018-06-25T18:45:40.802Z,22.11
2018-06-25T18:51:00.667Z,21.75
2018-06-25T18:53:30.094Z,21.61
2018-06-25T18:56:09.604Z,21.48
2018-06-25T18:58:39.657Z,21.31
2018-06-25T19:04:02.120Z,21.03
2018-06-25T19:06:31.451Z,20.94
2018-06-25T19:09:01.904Z,20.88
2018-06-25T19:11:30.956Z,20.79
2018-06-25T19:17:06.705Z,20.63
2018-06-25T19:19:35.988Z,20.53
2018-06-25T19:22:05.192Z,20.52
2018-06-25T19:24:34.303Z,20.46
2018-06-25T19:27:04.274Z,20.37
2018-06-25T19:29:37.372Z,20.32
2018-06-25T19:35:06.358Z,20.16
2018-06-25T19:37:36.115Z,20.06
2018-06-25T19:40:05.514Z,20.00
2018-06-25T19:42:34.459Z,19.93
2018-06-25T19:45:03.497Z,19.86
2018-06-25T19:47:32.421Z,19.79
2018-06-25T19:50:04.761Z,19.71
2018-06-25T19:52:33.664Z,19.62
2018-06-25T19:55:03.996Z,19.52
2018-06-25T19:57:32.801Z,19.48
2018-06-25T20:00:01.600Z,19.43
2018-06-25T20:02:30.941Z,19.40
2018-06-25T20:05:00.743Z,19.36
2018-06-25T20:07:29.935Z,19.31
2018-06-25T20:10:01.695Z,19.27
2018-06-25T20:12:32.749Z,19.23
2018-06-25T20:15:04.004Z,19.20
2018-06-25T20:17:33.207Z,19.16
2018-06-25T20:20:03.056Z,19.13
2018-06-25T20:22:47.333Z,19.10
2018-06-25T20:25:16.124Z,19.74
2018-06-25T20:27:44.984Z,19.26
2018-06-25T20:30:13.812Z,19.13
2018-06-25T20:32:42.707Z,19.07
2018-06-25T20:35:13.793Z,19.68
2018-06-25T20:37:42.700Z,19.18
2018-06-25T20:40:14.037Z,19.05
2018-06-25T20:42:42.925Z,18.96
2018-06-25T20:45:12.547Z,18.86
2018-06-25T20:47:41.348Z,19.50
2018-06-25T20:50:10.226Z,18.98
2018-06-25T20:52:39.005Z,18.83
2018-06-25T20:55:08.285Z,18.74
2018-06-25T20:57:37.133Z,18.70
2018-06-25T21:00:05.808Z,18.67
2018-06-25T21:02:34.561Z,19.33
2018-06-25T21:05:03.332Z,18.84
2018-06-25T21:07:33.245Z,18.75
2018-06-25T21:10:02.139Z,18.69
2018-06-25T21:12:32.833Z,18.62
2018-06-25T21:15:07.370Z,18.56
2018-06-25T21:17:39.194Z,18.50
2018-06-25T21:20:09.257Z,18.48
2018-06-25T21:22:39.012Z,19.15
2018-06-25T21:25:09.856Z,18.67
2018-06-25T21:27:39.814Z,18.57
2018-06-25T21:30:11.980Z,18.49
2018-06-25T21:32:40.851Z,18.43
2018-06-25T21:35:10.861Z,18.38
2018-06-25T21:37:44.911Z,18.35
2018-06-25T21:40:13.818Z,18.29
2018-06-25T21:42:42.764Z,18.97
2018-06-25T21:45:14.018Z,19.13
2018-06-25T21:47:51.710Z,18.53
2018-06-25T21:50:25.966Z,18.41
2018-06-25T21:52:56.747Z,18.37
2018-06-25T21:55:25.952Z,18.31
2018-06-25T21:58:00.388Z,18.98
2018-06-25T22:00:29.768Z,18.49
2018-06-25T22:03:02.833Z,18.39
2018-06-25T22:05:37.130Z,18.33
2018-06-25T22:08:16.860Z,18.29
2018-06-25T22:10:56.905Z,18.25
2018-06-25T22:16:16.078Z,19.11
2018-06-25T22:19:01.307Z,18.58
2018-06-25T22:21:32.650Z,18.41
2018-06-25T22:24:02.110Z,18.36
2018-06-25T22:29:33.465Z,18.27
2018-06-25T22:32:12.616Z,18.24
2018-06-25T22:37:46.800Z,18.20
2018-06-25T22:40:19.346Z,18.19
2018-06-25T22:45:47.223Z,18.14
2018-06-25T22:48:19.434Z,18.14
2018-06-25T22:53:44.231Z,18.09
2018-06-25T22:59:07.300Z,18.07
2018-06-25T23:01:36.019Z,18.75
2018-06-25T23:04:05.813Z,18.32
2018-06-25T23:06:36.552Z,18.23
2018-06-25T23:09:07.146Z,18.87
2018-06-25T23:11:35.892Z,18.39
2018-06-25T23:14:10.461Z,18.30
2018-06-25T23:16:39.265Z,18.23
2018-06-25T23:19:08.674Z,18.20
2018-06-25T23:21:37.713Z,18.15
2018-06-25T23:24:18.940Z,18.12
2018-06-25T23:26:48.591Z,18.08
2018-06-25T23:29:19.170Z,18.05
2018-06-25T23:31:52.482Z,18.05
2018-06-25T23:34:32.874Z,18.03
2018-06-25T23:37:01.707Z,18.71
2018-06-25T23:39:30.559Z,18.88
2018-06-25T23:41:59.980Z,18.35
2018-06-25T23:44:28.944Z,18.89
2018-06-25T23:46:58.555Z,18.39
2018-06-25T23:49:32.594Z,18.27
2018-06-25T23:52:02.116Z,18.20
2018-06-25T23:54:31.285Z,18.12
2018-06-25T23:57:00.300Z,18.08
2018-06-25T23:59:29.277Z,18.03
